Time;durP1;ratioP1;P1;durP2;ratioP2;P2;SDS_P1;SDS_P2;PMS_P1;PMS_P2;Temp;Humidity;BMP_temperature;BMP_pressure;BME280_temperature;BME280_humidity;BME280_pressure;Samples;Min_cycle;Max_cycle;Signal;HPM_P1;HPM_P2
2024/03/29 01:15:17;;;;;;;36.03;6.55;;;16.10;92.90;;;;;;5087201;28;20466;-71
2024/03/29 01:17:43;;;;;;;40.53;6.15;;;16.10;92.90;;;;;;5092397;28;20123;-70
2024/03/29 01:20:09;;;;;;;47.63;7.03;;;16.10;92.90;;;;;;5092487;28;20509;-70
2024/03/29 01:22:35;;;;;;;40.78;5.95;;;16.10;93.00;;;;;;5092207;28;20120;-70
2024/03/29 01:25:03;;;;;;;33.67;5.88;;;16.10;93.00;;;;;;5092514;28;20501;-71
2024/03/29 01:27:28;;;;;;;39.42;7.22;;;16.10;92.90;;;;;;5092696;28;20162;-71
2024/03/29 01:29:54;;;;;;;36.70;5.53;;;16.10;92.90;;;;;;5092507;28;20115;-70
2024/03/29 01:32:20;;;;;;;47.53;7.00;;;16.10;92.90;;;;;;5093545;28;20036;-71
2024/03/29 01:34:45;;;;;;;43.13;6.05;;;16.20;93.00;;;;;;5096312;28;20028;-72
2024/03/29 01:37:11;;;;;;;31.75;5.93;;;16.20;92.90;;;;;;5096201;28;20484;-73
2024/03/29 01:39:37;;;;;;;32.67;5.30;;;16.20;92.90;;;;;;5096267;28;20032;-71
2024/03/29 01:42:03;;;;;;;43.40;6.93;;;16.20;92.90;;;;;;5096133;28;20043;-70
2024/03/29 01:44:29;;;;;;;34.60;5.97;;;16.20;92.90;;;;;;5096180;28;20408;-70
2024/03/29 01:46:54;;;;;;;42.58;7.70;;;16.20;92.80;;;;;;5096102;28;20119;-70
2024/03/29 01:49:21;;;;;;;40.97;6.63;;;16.20;92.80;;;;;;5096043;28;20111;-71
2024/03/29 01:51:47;;;;;;;31.48;5.57;;;16.20;92.80;;;;;;5096256;28;20028;-71
2024/03/29 01:54:13;;;;;;;31.48;5.72;;;16.20;92.80;;;;;;5096102;28;20040;-71
2024/03/29 01:56:43;;;;;;;39.67;6.55;;;16.20;92.90;;;;;;5096171;28;20476;-72
2024/03/29 01:59:14;;;;;;;36.47;6.07;;;16.10;92.70;;;;;;5095965;28;20031;-71
2024/03/29 02:01:42;;;;;;;30.48;5.43;;;16.10;93.00;;;;;;5096084;28;20032;-72
2024/03/29 02:04:08;;;;;;;38.08;6.25;;;16.00;92.80;;;;;;5095586;28;20093;-71
2024/03/29 02:06:34;;;;;;;31.35;5.50;;;16.00;92.90;;;;;;5095691;28;20024;-71
2024/03/29 02:08:59;;;;;;;36.60;6.72;;;16.00;92.90;;;;;;5095414;28;20113;-71
2024/03/29 02:11:25;;;;;;;32.25;5.95;;;16.00;93.00;;;;;;5095345;28;20032;-71
2024/03/29 02:13:52;;;;;;;43.65;8.32;;;16.00;93.00;;;;;;5095523;28;20527;-70
2024/03/29 02:16:18;;;;;;;41.83;6.43;;;16.00;93.00;;;;;;5095116;28;20503;-70
2024/03/29 02:18:43;;;;;;;40.58;7.10;;;15.90;93.00;;;;;;5095378;28;20040;-70
2024/03/29 02:21:09;;;;;;;35.58;6.15;;;15.90;93.10;;;;;;5095326;28;20452;-71
2024/03/29 02:23:40;;;;;;;46.97;6.22;;;15.90;93.10;;;;;;5095380;28;20055;-70
2024/03/29 02:26:05;;;;;;;44.33;6.85;;;15.90;93.10;;;;;;5095306;28;20043;-70
2024/03/29 02:28:31;;;;;;;35.08;5.82;;;15.90;93.10;;;;;;5095056;28;20039;-71
2024/03/29 02:30:57;;;;;;;37.60;6.43;;;15.90;93.20;;;;;;5095726;28;20027;-71
2024/03/29 02:33:23;;;;;;;45.58;8.13;;;15.90;93.40;;;;;;5095305;28;20039;-70
2024/03/29 02:35:48;;;;;;;44.13;6.60;;;15.90;93.30;;;;;;5095050;28;20479;-70
2024/03/29 02:38:14;;;;;;;58.85;8.95;;;15.90;93.40;;;;;;5095029;28;20064;-70
2024/03/29 02:40:40;;;;;;;49.65;8.07;;;15.90;93.30;;;;;;5095082;28;20119;-70
2024/03/29 02:43:06;;;;;;;58.70;9.50;;;15.90;93.40;;;;;;5094793;28;20036;-70
2024/03/29 02:45:32;;;;;;;48.78;7.57;;;16.00;93.50;;;;;;5094873;28;20034;-70
2024/03/29 02:47:58;;;;;;;60.90;8.07;;;16.00;93.50;;;;;;5094752;28;20031;-70
2024/03/29 02:50:23;;;;;;;50.92;8.50;;;16.00;93.50;;;;;;5094886;28;20345;-71
2024/03/29 02:52:49;;;;;;;54.80;8.05;;;16.00;93.50;;;;;;5094685;28;20119;-71
2024/03/29 02:55:15;;;;;;;59.13;8.23;;;16.00;93.70;;;;;;5094862;28;20086;-71
2024/03/29 02:57:40;;;;;;;58.22;9.30;;;15.90;93.70;;;;;;5094647;28;20028;-70
2024/03/29 03:00:11;;;;;;;70.82;8.43;;;15.90;93.70;;;;;;5094386;28;20472;-70
2024/03/29 03:02:40;;;;;;;55.92;8.65;;;16.00;93.80;;;;;;5094416;28;20040;-70
2024/03/29 03:05:07;;;;;;;58.28;8.48;;;16.00;93.70;;;;;;5094725;28;20032;-71
2024/03/29 03:13:02;;;;;;;56.83;9.75;;;16.00;93.80;;;;;;5094668;28;20502;-70
2024/03/29 03:15:28;;;;;;;54.42;8.73;;;15.90;93.90;;;;;;5094277;28;20070;-71
2024/03/29 03:17:54;;;;;;;54.63;8.30;;;15.90;93.90;;;;;;5094137;28;20028;-71
2024/03/29 03:20:19;;;;;;;60.88;9.13;;;16.00;93.90;;;;;;5094296;28;20039;-70
2024/03/29 03:22:45;;;;;;;64.13;9.10;;;16.00;94.00;;;;;;5093971;28;20128;-71
2024/03/29 03:25:11;;;;;;;60.47;9.52;;;16.00;93.90;;;;;;5094545;28;20388;-70
2024/03/29 03:27:36;;;;;;;64.72;9.02;;;16.00;93.90;;;;;;5094210;28;20036;-71
2024/03/29 03:30:03;;;;;;;67.18;9.80;;;16.00;93.90;;;;;;5094058;28;20032;-71
2024/03/29 03:32:28;;;;;;;63.70;9.25;;;16.00;93.90;;;;;;5094012;28;20059;-70
2024/03/29 03:34:54;;;;;;;64.05;9.05;;;16.00;93.90;;;;;;5093955;28;20105;-72
2024/03/29 03:37:19;;;;;;;72.38;11.65;;;16.00;93.90;;;;;;5093581;28;20032;-71
2024/03/29 03:39:45;;;;;;;59.35;8.65;;;16.00;93.90;;;;;;5093696;28;20032;-71
2024/03/29 03:42:11;;;;;;;55.25;8.18;;;16.00;94.00;;;;;;5093732;28;20072;-71
2024/03/29 03:44:36;;;;;;;72.55;8.63;;;16.00;93.90;;;;;;5093685;28;20055;-70
2024/03/29 03:47:02;;;;;;;54.78;8.25;;;16.00;93.80;;;;;;5093486;28;20036;-70
2024/03/29 03:49:28;;;;;;;74.85;9.73;;;16.10;93.80;;;;;;5093714;28;20032;-70
2024/03/29 03:51:54;;;;;;;54.67;8.18;;;16.00;93.70;;;;;;5093792;28;20040;-70
2024/03/29 03:54:19;;;;;;;63.20;9.05;;;16.00;93.80;;;;;;5075319;28;20058;-71
2024/03/29 03:56:45;;;;;;;53.20;8.07;;;16.00;93.90;;;;;;5093476;28;20028;-70
2024/03/29 03:59:11;;;;;;;63.08;9.27;;;16.00;93.80;;;;;;5093496;28;20017;-70
2024/03/29 04:01:36;;;;;;;64.22;9.60;;;16.00;93.80;;;;;;5093483;28;20447;-71
2024/03/29 04:04:02;;;;;;;66.75;9.45;;;16.00;93.80;;;;;;5093584;28;20040;-71
2024/03/29 04:06:28;;;;;;;71.18;8.77;;;16.00;93.90;;;;;;5093401;28;20032;-70
2024/03/29 04:08:54;;;;;;;75.07;10.05;;;15.90;93.90;;;;;;5093513;28;20044;-70
2024/03/29 04:11:19;;;;;;;58.63;8.98;;;15.90;94.00;;;;;;5093384;28;20057;-71
2024/03/29 04:13:46;;;;;;;62.15;9.77;;;15.90;94.00;;;;;;5093147;28;20032;-71
2024/03/29 04:16:11;;;;;;;57.72;8.65;;;15.80;93.90;;;;;;5093295;28;20048;-72
2024/03/29 04:18:37;;;;;;;70.57;10.63;;;15.80;94.00;;;;;;5101387;22;20045;-70
2024/03/29 04:21:04;;;;;;;68.03;7.82;;;15.80;94.10;;;;;;5091845;28;20115;-70
2024/03/29 04:23:30;;;;;;;66.50;8.15;;;15.80;94.10;;;;;;5093156;28;20040;-70
2024/03/29 04:25:57;;;;;;;63.08;9.88;;;15.80;94.10;;;;;;5093127;28;20035;-70
2024/03/29 04:28:24;;;;;;;62.30;8.65;;;15.70;94.10;;;;;;5093387;28;20529;-71
2024/03/29 04:30:52;;;;;;;65.03;8.57;;;15.70;94.10;;;;;;5093102;28;20063;-71
2024/03/29 04:33:18;;;;;;;65.15;8.80;;;15.70;94.10;;;;;;5093267;28;20090;-70
2024/03/29 04:35:58;;;;;;;63.25;9.13;;;15.70;94.10;;;;;;5093071;28;20028;-71
2024/03/29 04:38:24;;;;;;;62.42;9.50;;;15.70;94.10;;;;;;5092810;28;20039;-71
2024/03/29 04:40:51;;;;;;;65.18;8.75;;;15.70;94.20;;;;;;5092831;28;20047;-71
2024/03/29 04:43:17;;;;;;;44.63;7.53;;;15.70;94.20;;;;;;5074720;28;20403;-69
2024/03/29 04:45:46;;;;;;;51.65;7.93;;;15.70;94.20;;;;;;5092894;28;20073;-70
2024/03/29 04:48:12;;;;;;;54.75;7.97;;;15.80;94.10;;;;;;5092735;28;20040;-71
2024/03/29 04:50:38;;;;;;;59.42;8.57;;;15.80;94.00;;;;;;5074416;28;20025;-71
2024/03/29 04:53:04;;;;;;;54.03;7.93;;;15.90;93.70;;;;;;5093011;28;20039;-71
2024/03/29 04:55:30;;;;;;;59.15;9.30;;;15.90;93.70;;;;;;5093120;28;20028;-70
2024/03/29 04:57:56;;;;;;;54.58;8.60;;;15.80;93.70;;;;;;5093145;28;20055;-71
2024/03/29 05:00:22;;;;;;;63.05;8.65;;;15.90;93.80;;;;;;5092866;28;20032;-69
2024/03/29 05:02:48;;;;;;;52.25;8.27;;;15.90;93.80;;;;;;5092441;28;20044;-70
2024/03/29 05:05:13;;;;;;;52.63;7.80;;;15.80;93.70;;;;;;5093122;28;20074;-71
2024/03/29 05:07:39;;;;;;;51.50;8.48;;;15.80;93.70;;;;;;5096670;28;20040;-70
2024/03/29 05:10:09;;;;;;;53.60;8.07;;;15.80;93.60;;;;;;5099254;28;20038;-71
2024/03/29 05:12:35;;;;;;;51.80;7.53;;;15.80;93.60;;;;;;5099198;28;20036;-70
2024/03/29 05:15:01;;;;;;;48.70;7.85;;;15.70;93.60;;;;;;5099370;28;20036;-70
2024/03/29 05:17:27;;;;;;;47.20;9.02;;;15.70;93.70;;;;;;5099197;28;20028;-70
2024/03/29 05:19:56;;;;;;;45.38;7.60;;;15.70;93.70;;;;;;5099193;28;20051;-72
2024/03/29 05:22:22;;;;;;;56.10;7.90;;;15.70;93.70;;;;;;5099102;28;20138;-71
2024/03/29 05:24:47;;;;;;;53.13;8.45;;;15.70;93.70;;;;;;5099221;28;20211;-71
2024/03/29 05:27:13;;;;;;;56.38;7.88;;;15.70;93.70;;;;;;5099113;28;20063;-70
2024/03/29 05:29:39;;;;;;;55.70;8.18;;;15.80;93.60;;;;;;5099219;28;20103;-71
2024/03/29 05:32:06;;;;;;;51.35;8.98;;;15.90;93.50;;;;;;5099591;28;20036;-70
2024/03/29 05:34:32;;;;;;;47.90;7.65;;;15.90;93.70;;;;;;5098948;28;20028;-70
2024/03/29 05:36:58;;;;;;;48.05;7.22;;;15.90;93.40;;;;;;5099179;28;20051;-71
2024/03/29 05:39:24;;;;;;;43.53;6.80;;;16.00;93.40;;;;;;5099226;28;20058;-71
2024/03/29 05:41:50;;;;;;;33.67;6.93;;;16.00;93.40;;;;;;5098989;28;20032;-71
2024/03/29 05:44:15;;;;;;;44.75;8.35;;;16.00;93.30;;;;;;5099188;28;20483;-69
2024/03/29 05:46:41;;;;;;;40.38;7.30;;;16.10;93.20;;;;;;5098873;28;20075;-71
2024/03/29 05:49:07;;;;;;;40.05;7.32;;;16.10;93.10;;;;;;5099186;28;20025;-71
2024/03/29 05:51:35;;;;;;;50.90;7.90;;;16.10;93.10;;;;;;5098785;28;20036;-72
2024/03/29 05:54:03;;;;;;;38.72;7.00;;;16.10;93.10;;;;;;5099040;28;20588;-71
2024/03/29 05:56:29;;;;;;;41.38;7.57;;;16.10;93.00;;;;;;5099291;28;20058;-70
2024/03/29 05:58:55;;;;;;;43.28;7.28;;;16.10;93.00;;;;;;5098875;28;20028;-71
2024/03/29 06:01:22;;;;;;;45.97;7.32;;;16.10;93.00;;;;;;5098928;28;20036;-71
2024/03/29 06:03:48;;;;;;;42.50;7.97;;;16.20;92.90;;;;;;5098822;28;20043;-70
2024/03/29 06:06:17;;;;;;;41.40;7.38;;;16.20;92.90;;;;;;5099006;28;20527;-71
2024/03/29 06:08:44;;;;;;;37.03;7.05;;;16.30;92.90;;;;;;5098783;28;20035;-70
2024/03/29 06:11:09;;;;;;;43.13;7.03;;;16.40;92.80;;;;;;5098820;28;20391;-70
2024/03/29 06:19:11;;;;;;;43.45;8.00;;;16.70;92.50;;;;;;5095288;28;20134;-71
2024/03/29 06:21:40;;;;;;;40.63;7.53;;;16.80;92.40;;;;;;5095618;28;20487;-71
2024/03/29 06:24:07;;;;;;;33.92;6.78;;;17.00;92.00;;;;;;5095040;28;20040;-72
2024/03/29 06:26:33;;;;;;;37.72;7.65;;;17.20;92.00;;;;;;5095633;28;20031;-71
2024/03/29 06:29:01;;;;;;;36.55;7.40;;;17.40;91.80;;;;;;5095363;28;20036;-70
2024/03/29 06:31:26;;;;;;;39.45;7.07;;;17.70;91.50;;;;;;5077115;28;20032;-71
2024/03/29 06:33:52;;;;;;;36.47;6.68;;;18.00;91.10;;;;;;5095290;28;20042;-71
2024/03/29 06:36:18;;;;;;;43.90;9.85;;;18.40;90.50;;;;;;5077010;28;20035;-70
2024/03/29 06:38:44;;;;;;;46.60;8.20;;;19.10;90.00;;;;;;5094932;28;20036;-70
2024/03/29 06:41:10;;;;;;;38.97;10.02;;;19.60;88.00;;;;;;5095493;28;20028;-70
2024/03/29 06:43:36;;;;;;;40.72;7.18;;;20.00;87.00;;;;;;5095066;28;20101;-70
2024/03/29 06:46:03;;;;;;;39.40;6.93;;;20.30;86.00;;;;;;5094966;28;20032;-71
2024/03/29 06:48:31;;;;;;;35.13;7.82;;;20.40;85.90;;;;;;5094961;28;20032;-71
2024/03/29 06:50:58;;;;;;;42.53;7.97;;;20.80;85.10;;;;;;5094539;28;20067;-70
2024/03/29 06:53:24;;;;;;;49.38;8.10;;;20.90;83.60;;;;;;5094857;28;20047;-70
2024/03/29 06:55:50;;;;;;;41.22;7.85;;;21.20;83.20;;;;;;5094665;28;20033;-71
2024/03/29 06:58:16;;;;;;;39.60;9.55;;;21.40;82.30;;;;;;5094714;28;20066;-70
2024/03/29 07:00:45;;;;;;;38.65;7.57;;;21.40;81.80;;;;;;5094530;28;20025;-71
2024/03/29 07:03:11;;;;;;;37.88;7.13;;;21.20;81.70;;;;;;5094651;28;20048;-70
2024/03/29 07:05:36;;;;;;;34.55;6.85;;;20.90;82.30;;;;;;5075936;28;20043;-72
2024/03/29 07:08:03;;;;;;;37.75;10.02;;;20.60;82.70;;;;;;5094749;28;20040;-72
2024/03/29 07:10:30;;;;;;;37.13;6.45;;;20.30;83.40;;;;;;5076603;28;20035;-72
2024/03/29 07:12:56;;;;;;;40.20;7.18;;;20.30;83.60;;;;;;5076337;28;20067;-71
2024/03/29 07:15:22;;;;;;;46.75;7.18;;;21.00;82.50;;;;;;5094555;28;20568;-71
2024/03/29 07:17:50;;;;;;;46.15;6.28;;;22.30;79.90;;;;;;5076094;28;20545;-71
2024/03/29 07:20:16;;;;;;;43.33;6.72;;;23.50;77.30;;;;;;5093890;28;20463;-72
2024/03/29 07:22:42;;;;;;;41.08;6.97;;;24.30;74.40;;;;;;5094104;28;20059;-71
2024/03/29 07:25:08;;;;;;;43.58;7.38;;;24.80;73.00;;;;;;5094326;28;20470;-71
2024/03/29 07:27:35;;;;;;;40.40;7.75;;;25.10;72.00;;;;;;5094423;28;20032;-72
2024/03/29 07:30:04;;;;;;;30.67;6.97;;;25.50;70.50;;;;;;5093726;28;20107;-71
2024/03/29 07:32:30;;;;;;;34.45;5.95;;;25.70;69.10;;;;;;5093782;28;20131;-72
2024/03/29 07:34:58;;;;;;;42.13;6.88;;;25.80;67.60;;;;;;5093756;28;20028;-72
2024/03/29 07:37:24;;;;;;;33.83;7.05;;;25.00;68.00;;;;;;5094169;28;20028;-73
2024/03/29 07:39:49;;;;;;;39.67;7.07;;;24.20;69.70;;;;;;5093671;28;20051;-71
2024/03/29 07:42:16;;;;;;;41.35;6.82;;;23.50;70.60;;;;;;5093522;28;20086;-71
2024/03/29 07:44:41;;;;;;;41.50;6.38;;;23.10;71.80;;;;;;5093701;28;20051;-72
2024/03/29 07:47:07;;;;;;;42.28;6.60;;;22.80;72.20;;;;;;5093703;28;20495;-72
2024/03/29 07:49:33;;;;;;;37.70;6.15;;;22.30;72.20;;;;;;5093438;28;20040;-72
2024/03/29 07:52:02;;;;;;;43.25;6.65;;;22.00;73.30;;;;;;5093715;28;20016;-72
2024/03/29 07:54:27;;;;;;;34.67;6.57;;;21.80;73.10;;;;;;5093309;28;20126;-72
2024/03/29 07:56:53;;;;;;;37.33;6.78;;;21.50;73.60;;;;;;5093684;28;20036;-72
2024/03/29 07:59:19;;;;;;;32.58;6.35;;;21.50;74.10;;;;;;5093268;28;20453;-71
2024/03/29 08:01:45;;;;;;;32.30;6.57;;;21.50;73.90;;;;;;5093330;28;20058;-72
2024/03/29 08:04:11;;;;;;;32.80;6.32;;;21.50;73.70;;;;;;5093614;28;20483;-72
2024/03/29 08:06:37;;;;;;;42.05;5.85;;;21.60;74.00;;;;;;5093736;28;20103;-72
2024/03/29 08:09:02;;;;;;;27.85;6.03;;;21.70;73.90;;;;;;5093599;28;20036;-71
2024/03/29 08:11:28;;;;;;;34.45;6.90;;;21.70;73.80;;;;;;5093284;28;20411;-72
2024/03/29 08:13:54;;;;;;;36.25;6.15;;;21.80;73.60;;;;;;5075120;28;20044;-74
2024/03/29 08:16:19;;;;;;;28.20;6.22;;;21.70;73.50;;;;;;5093418;28;20039;-71
2024/03/29 08:18:47;;;;;;;29.60;5.22;;;21.60;73.10;;;;;;5093601;28;20121;-72
2024/03/29 08:21:13;;;;;;;24.13;4.45;;;21.50;72.00;;;;;;5093179;28;20029;-72
2024/03/29 08:23:40;;;;;;;25.88;4.07;;;21.60;71.30;;;;;;5093131;28;20089;-71
2024/03/29 08:26:07;;;;;;;22.30;3.95;;;21.60;70.50;;;;;;5092851;28;20131;-72
2024/03/29 08:28:35;;;;;;;22.27;4.18;;;21.70;69.60;;;;;;5093094;28;20086;-71
2024/03/29 08:31:03;;;;;;;26.40;4.05;;;21.80;68.50;;;;;;5092932;28;20108;-72
2024/03/29 08:33:31;;;;;;;24.00;4.43;;;21.80;68.00;;;;;;5093223;28;20438;-72
2024/03/29 08:35:57;;;;;;;39.70;10.20;;;21.80;67.50;;;;;;5093156;28;20376;-71
2024/03/29 08:38:23;;;;;;;28.23;6.68;;;21.80;66.80;;;;;;5093069;28;20032;-71
2024/03/29 08:40:49;;;;;;;22.60;4.22;;;21.80;66.80;;;;;;5092569;28;20039;-71
2024/03/29 08:43:16;;;;;;;19.73;4.55;;;21.80;65.30;;;;;;5092030;28;20571;-73
2024/03/29 08:45:42;;;;;;;25.77;4.30;;;21.80;65.70;;;;;;5074426;28;20028;-73
2024/03/29 08:48:08;;;;;;;21.25;4.05;;;21.70;64.30;;;;;;5092610;28;20039;-73
2024/03/29 08:50:35;;;;;;;24.88;4.05;;;21.70;63.70;;;;;;5074494;28;20085;-72
2024/03/29 08:53:03;;;;;;;34.75;4.60;;;21.70;62.00;;;;;;5092515;28;20024;-72
2024/03/29 08:55:32;;;;;;;27.42;4.78;;;21.70;62.00;;;;;;5074363;28;20043;-71
2024/03/29 08:57:58;;;;;;;30.67;4.50;;;21.70;61.90;;;;;;5092315;28;20118;-71
2024/03/29 09:00:28;;;;;;;42.45;6.38;;;21.80;61.60;;;;;;5092615;28;20036;-72
2024/03/29 09:02:56;;;;;;;43.72;6.93;;;21.80;60.60;;;;;;5092478;28;20040;-71
2024/03/29 09:05:22;;;;;;;58.13;7.03;;;21.80;59.90;;;;;;5092704;28;20036;-71
2024/03/29 09:07:48;;;;;;;43.17;7.20;;;21.80;59.90;;;;;;5092418;28;20471;-71
2024/03/29 09:10:14;;;;;;;63.67;8.18;;;21.90;59.70;;;;;;5092480;28;20035;-72
2024/03/29 09:12:40;;;;;;;72.60;9.02;;;21.90;59.50;;;;;;5092541;28;20028;-72
2024/03/29 09:15:08;;;;;;;59.15;8.82;;;22.00;59.00;;;;;;5093296;28;20043;-71
2024/03/29 09:17:35;;;;;;;66.57;9.55;;;22.00;58.80;;;;;;5093902;28;20043;-71
2024/03/29 09:20:01;;;;;;;83.57;10.43;;;22.00;58.70;;;;;;5092183;28;20071;-72
2024/03/29 09:22:26;;;;;;;79.97;11.85;;;22.00;58.90;;;;;;5092119;28;20464;-71
2024/03/29 09:24:52;;;;;;;81.28;11.65;;;22.00;58.30;;;;;;5092322;28;20107;-72
2024/03/29 09:27:18;;;;;;;85.60;11.18;;;22.10;58.40;;;;;;5091926;28;20036;-72
2024/03/29 09:29:48;;;;;;;76.10;11.32;;;22.10;58.60;;;;;;5092376;28;20058;-72
2024/03/29 09:32:17;;;;;;;69.10;10.73;;;22.20;58.70;;;;;;5092359;28;20502;-72
2024/03/29 09:34:44;;;;;;;74.75;10.05;;;22.20;58.70;;;;;;5090764;28;20062;-71
2024/03/29 09:37:10;;;;;;;87.43;11.30;;;22.30;58.50;;;;;;5092147;28;20438;-71
2024/03/29 09:39:35;;;;;;;77.70;10.80;;;22.30;58.30;;;;;;5092191;28;20040;-72
2024/03/29 09:42:03;;;;;;;76.95;11.40;;;22.40;58.10;;;;;;5091928;28;20028;-72
2024/03/29 09:44:35;;;;;;;77.43;10.70;;;22.40;57.80;;;;;;5092180;28;20448;-71
2024/03/29 09:47:04;;;;;;;74.93;11.93;;;22.50;57.70;;;;;;5091751;28;20452;-71
2024/03/29 09:49:34;;;;;;;84.95;12.05;;;22.50;57.30;;;;;;5092009;28;20036;-72
2024/03/29 09:52:00;;;;;;;95.97;12.77;;;22.60;57.50;;;;;;5091767;28;20028;-72
2024/03/29 09:54:30;;;;;;;110.68;13.00;;;22.70;57.30;;;;;;5076547;28;20051;-72
2024/03/29 09:56:57;;;;;;;88.60;12.18;;;22.80;57.40;;;;;;5094306;28;20032;-71
2024/03/29 09:59:24;;;;;;;78.13;10.63;;;22.90;57.10;;;;;;5095563;28;20115;-69
2024/03/29 10:01:51;;;;;;;73.80;11.45;;;22.90;56.40;;;;;;5095739;28;20067;-72
2024/03/29 10:04:20;;;;;;;87.13;11.73;;;23.00;56.30;;;;;;5095849;28;20043;-72
2024/03/29 10:06:49;;;;;;;89.20;11.88;;;23.10;56.40;;;;;;5095787;28;20062;-71
2024/03/29 10:09:18;;;;;;;97.03;14.75;;;23.10;55.90;;;;;;5095442;28;20044;-72
2024/03/29 10:11:44;;;;;;;95.13;13.23;;;23.20;56.30;;;;;;5095549;28;20024;-71
2024/03/29 10:14:10;;;;;;;78.78;11.45;;;23.20;56.10;;;;;;5095485;28;20063;-72
2024/03/29 10:16:36;;;;;;;72.05;11.68;;;23.20;56.10;;;;;;5095617;28;20387;-73
2024/03/29 10:19:03;;;;;;;89.00;11.60;;;23.20;55.90;;;;;;5095398;28;20059;-73
2024/03/29 10:21:28;;;;;;;76.60;11.23;;;23.30;55.60;;;;;;5093641;28;20041;-72
2024/03/29 10:23:54;;;;;;;99.03;13.25;;;23.40;55.80;;;;;;5095402;28;20044;-73
2024/03/29 10:26:25;;;;;;;108.57;13.30;;;23.50;55.70;;;;;;5095605;28;20067;-73
2024/03/29 10:28:51;;;;;;;110.63;13.18;;;23.50;54.50;;;;;;5095087;28;20497;-72
2024/03/29 10:31:19;;;;;;;95.57;12.93;;;23.60;55.30;;;;;;5094020;28;20399;-73
2024/03/29 10:33:44;;;;;;;97.78;13.30;;;23.70;55.70;;;;;;5095070;28;20547;-72
2024/03/29 10:36:12;;;;;;;87.78;11.70;;;23.70;55.60;;;;;;5094772;28;20115;-74
2024/03/29 10:38:38;;;;;;;91.13;11.48;;;23.70;56.00;;;;;;5096602;28;20043;-73
2024/03/29 10:41:06;;;;;;;84.82;10.95;;;23.80;55.70;;;;;;5097429;28;20044;-72
2024/03/29 10:43:33;;;;;;;81.13;11.13;;;23.80;55.60;;;;;;5094818;28;20048;-73
2024/03/29 10:46:00;;;;;;;71.55;10.45;;;23.80;55.30;;;;;;5095074;28;20116;-72
2024/03/29 10:48:31;;;;;;;81.78;11.02;;;23.80;55.10;;;;;;5094708;28;20570;-70
2024/03/29 10:50:58;;;;;;;70.97;9.57;;;23.80;54.80;;;;;;5094598;28;20028;-72
2024/03/29 10:53:26;;;;;;;118.63;13.93;;;23.80;55.10;;;;;;5095043;28;20028;-72
2024/03/29 10:55:58;;;;;;;83.00;10.85;;;23.80;54.50;;;;;;5094749;28;20476;-71
2024/03/29 10:58:29;;;;;;;68.38;8.82;;;23.80;54.20;;;;;;5094958;28;20085;-70
2024/03/29 11:00:57;;;;;;;71.80;10.30;;;24.00;54.50;;;;;;5094769;28;20039;-71
2024/03/29 11:03:38;;;;;;;76.82;10.23;;;24.00;54.20;;;;;;5095452;28;20040;-72
2024/03/29 11:06:05;;;;;;;78.25;11.57;;;24.00;52.80;;;;;;5094370;28;20024;-72
2024/03/29 11:08:39;;;;;;;58.42;9.40;;;24.10;54.00;;;;;;5094736;28;20039;-71
2024/03/29 11:11:05;;;;;;;70.93;9.38;;;24.20;53.80;;;;;;5094522;28;20028;-72
2024/03/29 11:13:42;;;;;;;78.13;9.85;;;24.20;53.50;;;;;;5076216;28;20059;-71
2024/03/29 11:16:08;;;;;;;68.00;10.13;;;24.20;53.50;;;;;;5094590;28;20039;-72
2024/03/29 11:18:36;;;;;;;76.70;10.23;;;24.20;53.30;;;;;;5094508;28;20047;-71
2024/03/29 11:21:06;;;;;;;84.65;11.00;;;24.20;53.40;;;;;;5094418;28;20488;-72
2024/03/29 11:23:32;;;;;;;78.18;10.30;;;24.10;52.90;;;;;;5092939;28;20044;-72
2024/03/29 11:25:59;;;;;;;92.18;10.73;;;24.00;53.10;;;;;;5093944;28;20059;-72
2024/03/29 11:28:31;;;;;;;75.40;10.95;;;23.90;52.80;;;;;;5094405;28;20096;-73
2024/03/29 11:31:07;;;;;;;102.32;12.00;;;23.90;52.80;;;;;;5094543;28;20070;-69
2024/03/29 11:33:45;;;;;;;83.70;11.07;;;23.80;52.00;;;;;;5094186;28;20029;-72
2024/03/29 11:36:17;;;;;;;68.60;9.65;;;23.80;52.10;;;;;;5094275;28;20494;-73
2024/03/29 11:38:47;;;;;;;60.70;8.88;;;23.80;52.10;;;;;;5093751;28;20485;-72
2024/03/29 11:41:17;;;;;;;73.78;10.70;;;23.80;51.40;;;;;;5094304;28;20039;-71
2024/03/29 11:43:44;;;;;;;78.82;11.75;;;23.90;52.00;;;;;;5094743;28;20375;-73
2024/03/29 11:46:13;;;;;;;81.60;10.25;;;24.00;51.40;;;;;;5094515;28;20085;-72
2024/03/29 11:48:39;;;;;;;80.35;10.25;;;24.00;51.10;;;;;;5094955;28;20039;-72
2024/03/29 11:51:08;;;;;;;68.90;9.73;;;24.00;51.00;;;;;;5095020;28;20107;-73
2024/03/29 11:53:34;;;;;;;76.63;10.50;;;24.00;51.10;;;;;;5095507;28;20115;-71
2024/03/29 11:56:03;;;;;;;72.28;10.25;;;24.00;51.20;;;;;;5095282;28;20063;-72
2024/03/29 11:58:30;;;;;;;62.80;8.50;;;24.10;51.50;;;;;;5094385;28;20036;-76
2024/03/29 12:00:57;;;;;;;69.57;9.65;;;24.20;51.80;;;;;;5094315;28;20078;-73
2024/03/29 12:03:31;;;;;;;86.13;9.35;;;24.20;52.20;;;;;;5094035;28;20083;-72
2024/03/29 12:05:58;;;;;;;57.22;8.38;;;24.20;50.60;;;;;;5093321;28;20051;-73
2024/03/29 12:08:28;;;;;;;62.17;9.57;;;24.10;51.60;;;;;;5094178;28;20403;-71
2024/03/29 12:10:54;;;;;;;58.17;9.00;;;24.00;51.80;;;;;;5093666;28;20045;-72
2024/03/29 12:13:19;;;;;;;59.13;8.98;;;24.00;51.70;;;;;;5093818;28;20036;-72
2024/03/29 12:15:45;;;;;;;55.88;8.63;;;24.10;52.10;;;;;;5093470;28;20024;-72
2024/03/29 12:18:12;;;;;;;56.88;7.65;;;24.10;51.90;;;;;;5092188;28;20447;-72
2024/03/29 12:20:40;;;;;;;62.22;8.13;;;24.20;51.60;;;;;;5093481;28;20511;-71
2024/03/29 12:23:08;;;;;;;53.15;7.82;;;24.20;51.00;;;;;;5093329;28;20044;-73
2024/03/29 12:25:36;;;;;;;53.38;7.65;;;24.10;50.60;;;;;;5093263;28;20035;-72
2024/03/29 12:28:02;;;;;;;59.42;7.45;;;24.10;50.60;;;;;;5093397;28;20028;-72
2024/03/29 12:30:28;;;;;;;61.67;8.13;;;24.10;50.50;;;;;;5092809;28;20032;-71
2024/03/29 12:33:11;;;;;;;57.45;7.50;;;24.10;50.40;;;;;;5092743;28;20051;-71
2024/03/29 12:35:37;;;;;;;45.37;7.40;;;24.20;50.50;;;;;;5093044;28;20111;-70
2024/03/29 12:38:04;;;;;;;44.83;6.78;;;24.10;50.70;;;;;;5092986;28;20035;-72
2024/03/29 12:40:40;;;;;;;57.58;7.00;;;24.10;50.10;;;;;;5092918;28;20190;-71
2024/03/29 12:43:08;;;;;;;49.22;6.85;;;24.00;49.80;;;;;;5092597;28;20047;-72
2024/03/29 12:45:34;;;;;;;62.15;7.25;;;24.00;49.90;;;;;;5092950;28;20146;-72
2024/03/29 12:48:00;;;;;;;51.60;7.18;;;24.00;49.40;;;;;;5092835;28;20032;-72
2024/03/29 12:50:28;;;;;;;57.65;7.22;;;24.00;49.40;;;;;;5093144;28;20040;-72
2024/03/29 12:52:55;;;;;;;57.28;7.10;;;24.10;49.30;;;;;;5092860;28;20142;-72
2024/03/29 12:55:22;;;;;;;49.40;6.40;;;24.20;49.60;;;;;;5074847;28;20472;-73
2024/03/29 12:57:49;;;;;;;40.63;6.55;;;24.30;49.20;;;;;;5092958;28;20032;-72
2024/03/29 13:00:15;;;;;;;46.30;5.80;;;24.50;49.10;;;;;;5093419;28;20180;-72
2024/03/29 13:02:41;;;;;;;57.13;6.40;;;24.50;48.70;;;;;;5096904;28;20055;-73
2024/03/29 13:05:07;;;;;;;39.10;6.82;;;24.50;48.10;;;;;;5109075;28;20020;-72
2024/03/29 13:07:33;;;;;;;42.15;6.03;;;24.60;48.40;;;;;;5102329;28;20033;-74
2024/03/29 13:10:03;;;;;;;45.63;6.13;;;24.70;48.20;;;;;;5094179;28;20032;-72
2024/03/29 13:12:30;;;;;;;56.65;6.63;;;24.80;48.20;;;;;;5093133;28;20034;-74
2024/03/29 13:14:56;;;;;;;47.78;5.97;;;24.70;47.40;;;;;;5092847;28;20035;-72
2024/03/29 13:17:21;;;;;;;40.95;6.10;;;24.60;47.10;;;;;;5075011;28;20523;-72
2024/03/29 13:19:47;;;;;;;44.72;6.22;;;24.50;46.50;;;;;;5093092;28;20048;-72
2024/03/29 13:22:13;;;;;;;56.53;7.28;;;24.50;46.10;;;;;;5074592;28;20028;-73
2024/03/29 13:24:39;;;;;;;34.65;5.47;;;24.50;46.40;;;;;;5092974;28;20036;-72
2024/03/29 13:27:04;;;;;;;40.08;5.45;;;24.50;46.40;;;;;;5092795;28;20428;-72
2024/03/29 13:29:30;;;;;;;43.90;6.05;;;24.50;46.20;;;;;;5096330;28;20032;-73
2024/03/29 13:31:56;;;;;;;38.67;5.38;;;24.60;46.00;;;;;;5097674;28;20434;-72
2024/03/29 13:34:24;;;;;;;35.63;5.05;;;24.70;46.50;;;;;;5097177;28;20418;-73
2024/03/29 13:36:50;;;;;;;47.30;5.72;;;24.70;46.20;;;;;;5096370;28;20067;-72
2024/03/29 13:39:16;;;;;;;42.88;5.88;;;24.70;45.90;;;;;;5096588;28;20064;-72
2024/03/29 13:41:42;;;;;;;38.17;5.30;;;24.60;45.90;;;;;;5096324;28;20036;-73
2024/03/29 13:44:08;;;;;;;38.55;5.20;;;24.50;45.90;;;;;;5096188;28;20119;-73
2024/03/29 13:46:34;;;;;;;43.03;5.75;;;24.40;46.20;;;;;;5096334;28;20063;-74
2024/03/29 13:49:01;;;;;;;41.33;5.90;;;24.30;46.30;;;;;;5096348;28;20094;-72
2024/03/29 13:51:27;;;;;;;41.17;5.60;;;24.30;46.40;;;;;;5096428;28;20395;-72
2024/03/29 13:53:56;;;;;;;36.35;5.38;;;24.20;46.50;;;;;;5096342;28;20119;-73
2024/03/29 13:56:22;;;;;;;33.78;4.93;;;24.20;46.10;;;;;;5096495;28;20479;-72
2024/03/29 13:58:48;;;;;;;38.85;6.20;;;24.20;46.60;;;;;;5096129;28;20036;-72